sensor_id;sensor_type;location;lat;lon;timestamp;P1;durP1;ratioP1;P2;durP2;ratioP2
24389;SDS011;12510;56.468;-3.004;2023-04-28T00:00:49;19.05;;;12.68;;
24389;SDS011;12510;56.468;-3.004;2023-04-28T00:03:16;20.42;;;14.57;;
24389;SDS011;12510;56.468;-3.004;2023-04-28T00:05:43;17.85;;;13.73;;
24389;SDS011;12510;56.468;-3.004;2023-04-28T00:08:09;19.27;;;14.30;;
24389;SDS011;12510;56.468;-3.004;2023-04-28T00:10:35;17.55;;;13.50;;
24389;SDS011;12510;56.468;-3.004;2023-04-28T00:13:02;23.75;;;14.50;;
24389;SDS011;12510;56.468;-3.004;2023-04-28T00:15:28;24.33;;;13.88;;
24389;SDS011;12510;56.468;-3.004;2023-04-28T00:17:55;21.98;;;13.57;;
24389;SDS011;12510;56.468;-3.004;2023-04-28T00:20:21;20.15;;;13.68;;
24389;SDS011;12510;56.468;-3.004;2023-04-28T00:22:48;21.95;;;13.60;;
24389;SDS011;12510;56.468;-3.004;2023-04-28T00:25:15;23.50;;;14.05;;
24389;SDS011;12510;56.468;-3.004;2023-04-28T00:27:41;21.40;;;13.77;;
24389;SDS011;12510;56.468;-3.004;2023-04-28T00:30:08;21.55;;;13.63;;
24389;SDS011;12510;56.468;-3.004;2023-04-28T00:32:35;25.25;;;13.82;;
24389;SDS011;12510;56.468;-3.004;2023-04-28T00:35:02;26.02;;;13.90;;
24389;SDS011;12510;56.468;-3.004;2023-04-28T00:37:28;23.98;;;14.30;;
24389;SDS011;12510;56.468;-3.004;2023-04-28T00:39:55;21.50;;;12.65;;
24389;SDS011;12510;56.468;-3.004;2023-04-28T00:42:21;20.98;;;14.07;;
24389;SDS011;12510;56.468;-3.004;2023-04-28T00:44:48;18.65;;;13.50;;
24389;SDS011;12510;56.468;-3.004;2023-04-28T00:47:16;20.88;;;12.73;;
24389;SDS011;12510;56.468;-3.004;2023-04-28T00:49:43;18.50;;;13.60;;
24389;SDS011;12510;56.468;-3.004;2023-04-28T00:52:10;19.90;;;13.57;;
24389;SDS011;12510;56.468;-3.004;2023-04-28T00:54:36;19.30;;;13.15;;
24389;SDS011;12510;56.468;-3.004;2023-04-28T00:57:03;22.60;;;14.23;;
24389;SDS011;12510;56.468;-3.004;2023-04-28T00:59:30;17.25;;;14.68;;
24389;SDS011;12510;56.468;-3.004;2023-04-28T01:01:56;22.42;;;15.27;;
24389;SDS011;12510;56.468;-3.004;2023-04-28T01:04:25;19.48;;;15.02;;
24389;SDS011;12510;56.468;-3.004;2023-04-28T01:06:53;22.25;;;15.15;;
24389;SDS011;12510;56.468;-3.004;2023-04-28T01:09:21;22.52;;;15.77;;
24389;SDS011;12510;56.468;-3.004;2023-04-28T01:11:49;20.48;;;15.32;;
24389;SDS011;12510;56.468;-3.004;2023-04-28T01:14:39;22.67;;;14.23;;
24389;SDS011;12510;56.468;-3.004;2023-04-28T01:17:06;22.40;;;15.85;;
24389;SDS011;12510;56.468;-3.004;2023-04-28T01:19:33;21.90;;;15.30;;
24389;SDS011;12510;56.468;-3.004;2023-04-28T01:22:01;21.15;;;15.85;;
24389;SDS011;12510;56.468;-3.004;2023-04-28T01:24:27;24.02;;;16.70;;
24389;SDS011;12510;56.468;-3.004;2023-04-28T01:26:57;22.60;;;14.80;;
24389;SDS011;12510;56.468;-3.004;2023-04-28T01:29:23;25.23;;;15.43;;
24389;SDS011;12510;56.468;-3.004;2023-04-28T01:31:51;18.17;;;15.73;;
24389;SDS011;12510;56.468;-3.004;2023-04-28T01:34:18;22.13;;;15.57;;
24389;SDS011;12510;56.468;-3.004;2023-04-28T01:36:44;18.48;;;14.95;;
24389;SDS011;12510;56.468;-3.004;2023-04-28T01:39:11;21.15;;;16.17;;
24389;SDS011;12510;56.468;-3.004;2023-04-28T01:41:39;19.25;;;15.23;;
24389;SDS011;12510;56.468;-3.004;2023-04-28T01:44:06;23.48;;;16.27;;
24389;SDS011;12510;56.468;-3.004;2023-04-28T01:46:33;22.33;;;15.82;;
24389;SDS011;12510;56.468;-3.004;2023-04-28T01:48:59;19.52;;;15.15;;
24389;SDS011;12510;56.468;-3.004;2023-04-28T01:51:26;21.90;;;14.10;;
24389;SDS011;12510;56.468;-3.004;2023-04-28T01:53:52;18.60;;;16.25;;
24389;SDS011;12510;56.468;-3.004;2023-04-28T01:56:19;22.13;;;15.73;;
24389;SDS011;12510;56.468;-3.004;2023-04-28T01:58:46;24.10;;;16.38;;
24389;SDS011;12510;56.468;-3.004;2023-04-28T02:01:12;22.35;;;16.52;;
24389;SDS011;12510;56.468;-3.004;2023-04-28T02:03:39;21.08;;;16.05;;
24389;SDS011;12510;56.468;-3.004;2023-04-28T02:06:06;22.25;;;16.52;;
24389;SDS011;12510;56.468;-3.004;2023-04-28T02:08:32;24.50;;;17.02;;
24389;SDS011;12510;56.468;-3.004;2023-04-28T02:10:58;23.17;;;16.98;;
24389;SDS011;12510;56.468;-3.004;2023-04-28T02:13:26;25.00;;;15.85;;
24389;SDS011;12510;56.468;-3.004;2023-04-28T02:15:53;23.33;;;17.30;;
24389;SDS011;12510;56.468;-3.004;2023-04-28T02:18:20;23.13;;;16.45;;
24389;SDS011;12510;56.468;-3.004;2023-04-28T02:20:46;24.63;;;16.95;;
24389;SDS011;12510;56.468;-3.004;2023-04-28T02:23:13;24.70;;;17.88;;
24389;SDS011;12510;56.468;-3.004;2023-04-28T02:25:39;24.17;;;17.38;;
24389;SDS011;12510;56.468;-3.004;2023-04-28T02:28:06;22.02;;;16.88;;
24389;SDS011;12510;56.468;-3.004;2023-04-28T02:30:34;23.35;;;16.25;;
24389;SDS011;12510;56.468;-3.004;2023-04-28T02:33:00;33.03;;;19.48;;
24389;SDS011;12510;56.468;-3.004;2023-04-28T02:35:27;36.75;;;19.85;;
24389;SDS011;12510;56.468;-3.004;2023-04-28T02:37:54;23.00;;;18.30;;
24389;SDS011;12510;56.468;-3.004;2023-04-28T02:40:20;26.38;;;18.17;;
24389;SDS011;12510;56.468;-3.004;2023-04-28T02:42:47;29.60;;;18.33;;
24389;SDS011;12510;56.468;-3.004;2023-04-28T02:45:13;32.78;;;19.10;;
24389;SDS011;12510;56.468;-3.004;2023-04-28T02:47:40;28.45;;;18.92;;
24389;SDS011;12510;56.468;-3.004;2023-04-28T02:50:06;25.58;;;18.30;;
24389;SDS011;12510;56.468;-3.004;2023-04-28T02:52:33;29.38;;;20.48;;
24389;SDS011;12510;56.468;-3.004;2023-04-28T02:55:00;25.52;;;18.02;;
24389;SDS011;12510;56.468;-3.004;2023-04-28T02:57:28;25.55;;;19.52;;
24389;SDS011;12510;56.468;-3.004;2023-04-28T02:59:54;27.75;;;18.88;;
24389;SDS011;12510;56.468;-3.004;2023-04-28T03:02:22;27.77;;;20.05;;
24389;SDS011;12510;56.468;-3.004;2023-04-28T03:04:48;32.67;;;19.75;;
24389;SDS011;12510;56.468;-3.004;2023-04-28T03:07:15;29.25;;;20.33;;
24389;SDS011;12510;56.468;-3.004;2023-04-28T03:09:42;27.95;;;18.92;;
24389;SDS011;12510;56.468;-3.004;2023-04-28T03:12:08;27.98;;;20.15;;
24389;SDS011;12510;56.468;-3.004;2023-04-28T03:14:35;27.48;;;20.13;;
24389;SDS011;12510;56.468;-3.004;2023-04-28T03:17:01;24.92;;;19.38;;
24389;SDS011;12510;56.468;-3.004;2023-04-28T03:19:28;30.20;;;20.48;;
24389;SDS011;12510;56.468;-3.004;2023-04-28T03:21:54;35.58;;;20.65;;
24389;SDS011;12510;56.468;-3.004;2023-04-28T03:24:21;32.92;;;20.92;;
24389;SDS011;12510;56.468;-3.004;2023-04-28T03:26:49;29.73;;;20.02;;
24389;SDS011;12510;56.468;-3.004;2023-04-28T03:29:16;38.50;;;20.38;;
24389;SDS011;12510;56.468;-3.004;2023-04-28T03:31:43;29.75;;;20.23;;
24389;SDS011;12510;56.468;-3.004;2023-04-28T03:34:09;28.83;;;20.73;;
24389;SDS011;12510;56.468;-3.004;2023-04-28T03:36:36;30.98;;;20.08;;
24389;SDS011;12510;56.468;-3.004;2023-04-28T03:39:09;32.58;;;20.63;;
24389;SDS011;12510;56.468;-3.004;2023-04-28T03:41:35;32.88;;;21.45;;
24389;SDS011;12510;56.468;-3.004;2023-04-28T03:44:37;32.63;;;20.70;;
24389;SDS011;12510;56.468;-3.004;2023-04-28T03:47:05;33.50;;;20.48;;
24389;SDS011;12510;56.468;-3.004;2023-04-28T03:49:32;28.20;;;20.75;;
24389;SDS011;12510;56.468;-3.004;2023-04-28T03:51:58;33.30;;;21.17;;
24389;SDS011;12510;56.468;-3.004;2023-04-28T03:54:25;36.67;;;21.67;;
24389;SDS011;12510;56.468;-3.004;2023-04-28T03:56:51;32.10;;;20.27;;
24389;SDS011;12510;56.468;-3.004;2023-04-28T03:59:18;31.48;;;20.88;;
24389;SDS011;12510;56.468;-3.004;2023-04-28T04:01:44;25.33;;;20.52;;
24389;SDS011;12510;56.468;-3.004;2023-04-28T04:04:11;26.50;;;19.25;;
24389;SDS011;12510;56.468;-3.004;2023-04-28T04:06:37;23.45;;;20.83;;
24389;SDS011;12510;56.468;-3.004;2023-04-28T04:09:04;30.15;;;21.58;;
24389;SDS011;12510;56.468;-3.004;2023-04-28T04:11:35;35.67;;;21.08;;
24389;SDS011;12510;56.468;-3.004;2023-04-28T04:14:02;27.13;;;20.67;;
24389;SDS011;12510;56.468;-3.004;2023-04-28T04:16:28;27.25;;;20.58;;
24389;SDS011;12510;56.468;-3.004;2023-04-28T04:18:56;33.28;;;21.63;;
24389;SDS011;12510;56.468;-3.004;2023-04-28T04:21:29;28.95;;;21.55;;
24389;SDS011;12510;56.468;-3.004;2023-04-28T04:23:57;21.85;;;19.08;;
24389;SDS011;12510;56.468;-3.004;2023-04-28T04:26:23;25.30;;;19.63;;
24389;SDS011;12510;56.468;-3.004;2023-04-28T04:28:50;26.75;;;21.02;;
24389;SDS011;12510;56.468;-3.004;2023-04-28T04:31:17;25.70;;;20.33;;
24389;SDS011;12510;56.468;-3.004;2023-04-28T04:33:47;23.90;;;20.88;;
24389;SDS011;12510;56.468;-3.004;2023-04-28T04:36:14;36.25;;;21.83;;
24389;SDS011;12510;56.468;-3.004;2023-04-28T04:38:41;24.05;;;20.58;;
24389;SDS011;12510;56.468;-3.004;2023-04-28T04:41:17;30.10;;;22.10;;
24389;SDS011;12510;56.468;-3.004;2023-04-28T04:43:46;30.85;;;21.08;;
24389;SDS011;12510;56.468;-3.004;2023-04-28T04:46:13;25.33;;;20.10;;
24389;SDS011;12510;56.468;-3.004;2023-04-28T04:48:40;27.30;;;21.05;;
24389;SDS011;12510;56.468;-3.004;2023-04-28T04:51:06;30.40;;;21.17;;
24389;SDS011;12510;56.468;-3.004;2023-04-28T04:53:33;29.27;;;21.75;;
24389;SDS011;12510;56.468;-3.004;2023-04-28T04:56:00;27.85;;;20.77;;
24389;SDS011;12510;56.468;-3.004;2023-04-28T04:58:28;31.58;;;20.95;;
24389;SDS011;12510;56.468;-3.004;2023-04-28T05:01:17;28.73;;;21.23;;
24389;SDS011;12510;56.468;-3.004;2023-04-28T05:03:44;38.75;;;22.45;;
24389;SDS011;12510;56.468;-3.004;2023-04-28T05:06:10;28.52;;;21.88;;
24389;SDS011;12510;56.468;-3.004;2023-04-28T05:08:43;25.40;;;20.60;;
24389;SDS011;12510;56.468;-3.004;2023-04-28T05:11:10;26.05;;;20.48;;
24389;SDS011;12510;56.468;-3.004;2023-04-28T05:13:37;32.60;;;21.20;;
24389;SDS011;12510;56.468;-3.004;2023-04-28T05:16:05;27.38;;;21.05;;
24389;SDS011;12510;56.468;-3.004;2023-04-28T05:18:50;26.83;;;22.13;;
24389;SDS011;12510;56.468;-3.004;2023-04-28T05:21:17;29.65;;;22.67;;
24389;SDS011;12510;56.468;-3.004;2023-04-28T05:23:44;27.42;;;23.25;;
24389;SDS011;12510;56.468;-3.004;2023-04-28T05:26:11;26.05;;;20.42;;
24389;SDS011;12510;56.468;-3.004;2023-04-28T05:28:38;26.98;;;22.48;;
24389;SDS011;12510;56.468;-3.004;2023-04-28T05:31:06;28.30;;;22.88;;
24389;SDS011;12510;56.468;-3.004;2023-04-28T05:33:33;28.20;;;21.30;;
24389;SDS011;12510;56.468;-3.004;2023-04-28T05:35:59;29.77;;;22.27;;
24389;SDS011;12510;56.468;-3.004;2023-04-28T05:38:26;25.13;;;22.05;;
24389;SDS011;12510;56.468;-3.004;2023-04-28T05:40:54;26.63;;;22.13;;
24389;SDS011;12510;56.468;-3.004;2023-04-28T05:43:20;30.55;;;21.65;;
24389;SDS011;12510;56.468;-3.004;2023-04-28T05:45:48;27.45;;;22.45;;
24389;SDS011;12510;56.468;-3.004;2023-04-28T05:48:14;27.27;;;22.05;;
24389;SDS011;12510;56.468;-3.004;2023-04-28T05:50:41;25.40;;;21.42;;
24389;SDS011;12510;56.468;-3.004;2023-04-28T05:53:09;27.80;;;22.42;;
24389;SDS011;12510;56.468;-3.004;2023-04-28T05:55:36;24.98;;;21.45;;
24389;SDS011;12510;56.468;-3.004;2023-04-28T05:58:03;25.15;;;22.20;;
24389;SDS011;12510;56.468;-3.004;2023-04-28T06:00:30;29.92;;;22.88;;
24389;SDS011;12510;56.468;-3.004;2023-04-28T06:02:59;29.38;;;22.15;;
24389;SDS011;12510;56.468;-3.004;2023-04-28T06:05:25;27.75;;;22.75;;
24389;SDS011;12510;56.468;-3.004;2023-04-28T06:07:54;26.98;;;21.10;;
24389;SDS011;12510;56.468;-3.004;2023-04-28T06:10:21;26.10;;;21.13;;
24389;SDS011;12510;56.468;-3.004;2023-04-28T06:12:48;24.25;;;21.63;;
24389;SDS011;12510;56.468;-3.004;2023-04-28T06:15:15;27.77;;;22.63;;
24389;SDS011;12510;56.468;-3.004;2023-04-28T06:17:41;25.80;;;23.00;;
24389;SDS011;12510;56.468;-3.004;2023-04-28T06:20:08;25.05;;;22.35;;
24389;SDS011;12510;56.468;-3.004;2023-04-28T06:22:39;27.25;;;22.88;;
24389;SDS011;12510;56.468;-3.004;2023-04-28T06:25:06;26.88;;;21.25;;
24389;SDS011;12510;56.468;-3.004;2023-04-28T06:27:53;24.25;;;21.30;;
24389;SDS011;12510;56.468;-3.004;2023-04-28T06:30:20;24.73;;;21.17;;
24389;SDS011;12510;56.468;-3.004;2023-04-28T06:32:48;24.50;;;21.90;;
24389;SDS011;12510;56.468;-3.004;2023-04-28T06:35:15;24.25;;;21.08;;
24389;SDS011;12510;56.468;-3.004;2023-04-28T06:37:41;24.23;;;20.67;;
24389;SDS011;12510;56.468;-3.004;2023-04-28T06:40:08;24.95;;;20.95;;
24389;SDS011;12510;56.468;-3.004;2023-04-28T06:42:39;22.55;;;19.77;;
24389;SDS011;12510;56.468;-3.004;2023-04-28T06:45:10;23.67;;;21.00;;
24389;SDS011;12510;56.468;-3.004;2023-04-28T06:47:37;24.20;;;19.88;;
24389;SDS011;12510;56.468;-3.004;2023-04-28T06:50:07;23.02;;;20.13;;
24389;SDS011;12510;56.468;-3.004;2023-04-28T06:52:35;24.80;;;22.20;;
24389;SDS011;12510;56.468;-3.004;2023-04-28T06:55:05;22.73;;;20.33;;
24389;SDS011;12510;56.468;-3.004;2023-04-28T06:57:32;25.85;;;21.75;;
24389;SDS011;12510;56.468;-3.004;2023-04-28T06:59:59;24.38;;;19.98;;
24389;SDS011;12510;56.468;-3.004;2023-04-28T07:02:25;24.05;;;21.25;;
24389;SDS011;12510;56.468;-3.004;2023-04-28T07:04:52;22.17;;;19.98;;
24389;SDS011;12510;56.468;-3.004;2023-04-28T07:07:18;23.25;;;20.85;;
24389;SDS011;12510;56.468;-3.004;2023-04-28T07:09:44;24.80;;;21.13;;
24389;SDS011;12510;56.468;-3.004;2023-04-28T07:12:11;22.13;;;19.83;;
24389;SDS011;12510;56.468;-3.004;2023-04-28T07:14:37;22.65;;;20.17;;
24389;SDS011;12510;56.468;-3.004;2023-04-28T07:17:04;22.65;;;20.33;;
24389;SDS011;12510;56.468;-3.004;2023-04-28T07:19:30;21.48;;;19.15;;
24389;SDS011;12510;56.468;-3.004;2023-04-28T07:21:57;23.10;;;19.50;;
24389;SDS011;12510;56.468;-3.004;2023-04-28T07:24:23;21.20;;;18.98;;
24389;SDS011;12510;56.468;-3.004;2023-04-28T07:26:50;23.35;;;20.95;;
24389;SDS011;12510;56.468;-3.004;2023-04-28T07:29:17;20.80;;;18.60;;
24389;SDS011;12510;56.468;-3.004;2023-04-28T07:31:43;20.40;;;18.50;;
24389;SDS011;12510;56.468;-3.004;2023-04-28T07:34:10;20.08;;;17.98;;
24389;SDS011;12510;56.468;-3.004;2023-04-28T07:36:36;21.05;;;18.85;;
24389;SDS011;12510;56.468;-3.004;2023-04-28T07:39:03;19.15;;;16.45;;
24389;SDS011;12510;56.468;-3.004;2023-04-28T07:41:29;19.70;;;17.77;;
24389;SDS011;12510;56.468;-3.004;2023-04-28T07:44:00;19.83;;;17.75;;
24389;SDS011;12510;56.468;-3.004;2023-04-28T07:46:27;19.70;;;17.70;;
24389;SDS011;12510;56.468;-3.004;2023-04-28T07:48:53;19.38;;;17.35;;
24389;SDS011;12510;56.468;-3.004;2023-04-28T07:51:20;17.92;;;16.23;;
24389;SDS011;12510;56.468;-3.004;2023-04-28T07:53:46;17.52;;;15.80;;
24389;SDS011;12510;56.468;-3.004;2023-04-28T07:56:12;17.88;;;14.98;;
24389;SDS011;12510;56.468;-3.004;2023-04-28T07:58:39;16.58;;;14.98;;
24389;SDS011;12510;56.468;-3.004;2023-04-28T08:01:05;16.98;;;15.48;;
24389;SDS011;12510;56.468;-3.004;2023-04-28T08:03:32;16.85;;;15.25;;
24389;SDS011;12510;56.468;-3.004;2023-04-28T08:05:59;18.65;;;16.70;;
24389;SDS011;12510;56.468;-3.004;2023-04-28T08:08:26;16.67;;;14.98;;
24389;SDS011;12510;56.468;-3.004;2023-04-28T08:10:52;17.20;;;15.35;;
24389;SDS011;12510;56.468;-3.004;2023-04-28T08:13:19;17.85;;;16.02;;
24389;SDS011;12510;56.468;-3.004;2023-04-28T08:15:46;19.98;;;15.90;;
24389;SDS011;12510;56.468;-3.004;2023-04-28T08:18:13;16.75;;;15.15;;
24389;SDS011;12510;56.468;-3.004;2023-04-28T08:20:40;18.38;;;16.58;;
24389;SDS011;12510;56.468;-3.004;2023-04-28T08:23:07;17.20;;;15.60;;
24389;SDS011;12510;56.468;-3.004;2023-04-28T08:25:34;17.33;;;15.73;;
24389;SDS011;12510;56.468;-3.004;2023-04-28T08:28:01;18.15;;;16.10;;
24389;SDS011;12510;56.468;-3.004;2023-04-28T08:30:28;16.38;;;14.68;;
24389;SDS011;12510;56.468;-3.004;2023-04-28T08:32:55;16.95;;;15.38;;
24389;SDS011;12510;56.468;-3.004;2023-04-28T08:35:21;18.80;;;16.30;;
24389;SDS011;12510;56.468;-3.004;2023-04-28T08:37:48;18.52;;;16.63;;
24389;SDS011;12510;56.468;-3.004;2023-04-28T08:40:14;16.45;;;14.88;;
24389;SDS011;12510;56.468;-3.004;2023-04-28T08:42:41;17.27;;;15.45;;
24389;SDS011;12510;56.468;-3.004;2023-04-28T08:45:13;17.23;;;15.50;;
24389;SDS011;12510;56.468;-3.004;2023-04-28T08:47:40;16.45;;;14.80;;
24389;SDS011;12510;56.468;-3.004;2023-04-28T08:50:11;16.70;;;15.00;;
24389;SDS011;12510;56.468;-3.004;2023-04-28T08:52:39;16.38;;;14.75;;
24389;SDS011;12510;56.468;-3.004;2023-04-28T08:55:08;15.45;;;14.05;;
24389;SDS011;12510;56.468;-3.004;2023-04-28T09:00:10;16.60;;;15.10;;
24389;SDS011;12510;56.468;-3.004;2023-04-28T09:02:37;15.70;;;14.25;;
24389;SDS011;12510;56.468;-3.004;2023-04-28T09:05:07;16.85;;;15.20;;
24389;SDS011;12510;56.468;-3.004;2023-04-28T09:07:34;16.70;;;15.05;;
24389;SDS011;12510;56.468;-3.004;2023-04-28T09:12:48;17.70;;;16.15;;
24389;SDS011;12510;56.468;-3.004;2023-04-28T09:15:27;18.30;;;16.40;;
24389;SDS011;12510;56.468;-3.004;2023-04-28T09:18:00;16.45;;;14.82;;
24389;SDS011;12510;56.468;-3.004;2023-04-28T09:20:31;17.40;;;15.80;;
24389;SDS011;12510;56.468;-3.004;2023-04-28T09:23:12;18.35;;;16.63;;
24389;SDS011;12510;56.468;-3.004;2023-04-28T09:28:26;18.13;;;16.38;;
24389;SDS011;12510;56.468;-3.004;2023-04-28T09:30:53;18.95;;;16.95;;
24389;SDS011;12510;56.468;-3.004;2023-04-28T09:33:20;17.40;;;15.80;;
24389;SDS011;12510;56.468;-3.004;2023-04-28T09:35:47;18.77;;;16.88;;
24389;SDS011;12510;56.468;-3.004;2023-04-28T09:38:14;17.63;;;16.05;;
24389;SDS011;12510;56.468;-3.004;2023-04-28T09:40:51;19.58;;;17.55;;
24389;SDS011;12510;56.468;-3.004;2023-04-28T09:43:24;18.48;;;16.70;;
24389;SDS011;12510;56.468;-3.004;2023-04-28T09:46:08;19.13;;;17.23;;
24389;SDS011;12510;56.468;-3.004;2023-04-28T09:48:35;18.88;;;17.05;;
24389;SDS011;12510;56.468;-3.004;2023-04-28T09:51:06;22.50;;;20.08;;
24389;SDS011;12510;56.468;-3.004;2023-04-28T09:53:33;19.33;;;17.02;;
24389;SDS011;12510;56.468;-3.004;2023-04-28T09:56:01;19.20;;;17.27;;
24389;SDS011;12510;56.468;-3.004;2023-04-28T09:58:30;19.75;;;17.70;;
24389;SDS011;12510;56.468;-3.004;2023-04-28T10:00:59;31.73;;;28.67;;
24389;SDS011;12510;56.468;-3.004;2023-04-28T10:03:27;20.60;;;18.73;;
24389;SDS011;12510;56.468;-3.004;2023-04-28T10:05:55;16.92;;;15.38;;
24389;SDS011;12510;56.468;-3.004;2023-04-28T10:08:23;15.85;;;14.45;;
24389;SDS011;12510;56.468;-3.004;2023-04-28T10:10:51;15.82;;;14.40;;
24389;SDS011;12510;56.468;-3.004;2023-04-28T10:13:20;14.95;;;13.57;;
24389;SDS011;12510;56.468;-3.004;2023-04-28T10:15:48;15.38;;;13.77;;
24389;SDS011;12510;56.468;-3.004;2023-04-28T10:18:16;15.07;;;13.52;;
24389;SDS011;12510;56.468;-3.004;2023-04-28T10:20:44;15.00;;;13.52;;
24389;SDS011;12510;56.468;-3.004;2023-04-28T10:26:08;14.77;;;13.38;;
24389;SDS011;12510;56.468;-3.004;2023-04-28T10:28:43;13.90;;;12.60;;
24389;SDS011;12510;56.468;-3.004;2023-04-28T10:31:14;14.52;;;13.20;;
24389;SDS011;12510;56.468;-3.004;2023-04-28T10:33:48;14.02;;;12.60;;
24389;SDS011;12510;56.468;-3.004;2023-04-28T10:39:12;15.10;;;12.52;;
24389;SDS011;12510;56.468;-3.004;2023-04-28T10:41:39;16.55;;;13.40;;
24389;SDS011;12510;56.468;-3.004;2023-04-28T10:47:00;16.13;;;12.65;;
24389;SDS011;12510;56.468;-3.004;2023-04-28T11:00:43;13.25;;;11.73;;
24389;SDS011;12510;56.468;-3.004;2023-04-28T11:08:55;16.58;;;12.13;;
24389;SDS011;12510;56.468;-3.004;2023-04-28T11:11:27;13.63;;;12.32;;
24389;SDS011;12510;56.468;-3.004;2023-04-28T11:14:29;13.05;;;11.95;;
24389;SDS011;12510;56.468;-3.004;2023-04-28T11:16:50;13.10;;;11.95;;
24389;SDS011;12510;56.468;-3.004;2023-04-28T11:22:03;13.88;;;12.50;;
24389;SDS011;12510;56.468;-3.004;2023-04-28T11:24:36;13.43;;;12.10;;
24389;SDS011;12510;56.468;-3.004;2023-04-28T11:27:03;14.25;;;13.00;;
24389;SDS011;12510;56.468;-3.004;2023-04-28T11:29:36;13.30;;;12.10;;
24389;SDS011;12510;56.468;-3.004;2023-04-28T11:32:05;15.05;;;13.75;;
24389;SDS011;12510;56.468;-3.004;2023-04-28T11:34:33;14.68;;;12.10;;
24389;SDS011;12510;56.468;-3.004;2023-04-28T11:37:00;12.27;;;11.23;;
24389;SDS011;12510;56.468;-3.004;2023-04-28T11:39:28;21.55;;;13.82;;
24389;SDS011;12510;56.468;-3.004;2023-04-28T11:42:02;15.30;;;14.00;;
24389;SDS011;12510;56.468;-3.004;2023-04-28T11:44:35;14.75;;;13.27;;
24389;SDS011;12510;56.468;-3.004;2023-04-28T11:47:02;14.40;;;12.85;;
24389;SDS011;12510;56.468;-3.004;2023-04-28T11:49:30;16.38;;;14.88;;
24389;SDS011;12510;56.468;-3.004;2023-04-28T11:52:06;20.55;;;16.17;;
24389;SDS011;12510;56.468;-3.004;2023-04-28T11:54:34;15.27;;;13.02;;
24389;SDS011;12510;56.468;-3.004;2023-04-28T11:57:02;19.10;;;15.43;;
24389;SDS011;12510;56.468;-3.004;2023-04-28T11:59:33;16.30;;;14.73;;
24389;SDS011;12510;56.468;-3.004;2023-04-28T12:02:01;15.13;;;13.52;;
24389;SDS011;12510;56.468;-3.004;2023-04-28T12:09:35;14.30;;;12.85;;
24389;SDS011;12510;56.468;-3.004;2023-04-28T12:12:03;15.65;;;14.02;;
24389;SDS011;12510;56.468;-3.004;2023-04-28T12:14:32;20.00;;;18.08;;
24389;SDS011;12510;56.468;-3.004;2023-04-28T12:17:25;14.00;;;12.52;;
24389;SDS011;12510;56.468;-3.004;2023-04-28T12:19:52;14.93;;;13.20;;
24389;SDS011;12510;56.468;-3.004;2023-04-28T12:22:19;14.68;;;13.27;;
24389;SDS011;12510;56.468;-3.004;2023-04-28T12:24:46;16.13;;;13.98;;
24389;SDS011;12510;56.468;-3.004;2023-04-28T12:27:33;14.80;;;13.50;;
24389;SDS011;12510;56.468;-3.004;2023-04-28T12:30:01;13.73;;;12.43;;
24389;SDS011;12510;56.468;-3.004;2023-04-28T12:32:37;15.60;;;14.10;;
24389;SDS011;12510;56.468;-3.004;2023-04-28T12:35:05;15.38;;;13.77;;
24389;SDS011;12510;56.468;-3.004;2023-04-28T12:37:32;13.95;;;12.73;;
24389;SDS011;12510;56.468;-3.004;2023-04-28T12:39:58;14.02;;;12.70;;
24389;SDS011;12510;56.468;-3.004;2023-04-28T12:42:25;13.88;;;12.52;;
24389;SDS011;12510;56.468;-3.004;2023-04-28T12:44:52;17.73;;;12.65;;
24389;SDS011;12510;56.468;-3.004;2023-04-28T12:47:18;13.60;;;12.20;;
24389;SDS011;12510;56.468;-3.004;2023-04-28T12:49:45;12.85;;;11.60;;
24389;SDS011;12510;56.468;-3.004;2023-04-28T12:52:13;13.15;;;12.00;;
24389;SDS011;12510;56.468;-3.004;2023-04-28T12:54:40;14.57;;;11.40;;
24389;SDS011;12510;56.468;-3.004;2023-04-28T12:57:12;13.90;;;12.55;;
24389;SDS011;12510;56.468;-3.004;2023-04-28T12:59:39;13.70;;;12.45;;
24389;SDS011;12510;56.468;-3.004;2023-04-28T13:02:05;11.30;;;10.30;;
24389;SDS011;12510;56.468;-3.004;2023-04-28T13:04:32;12.60;;;11.40;;
24389;SDS011;12510;56.468;-3.004;2023-04-28T13:06:59;12.40;;;11.30;;
24389;SDS011;12510;56.468;-3.004;2023-04-28T13:09:26;11.13;;;10.02;;
24389;SDS011;12510;56.468;-3.004;2023-04-28T13:11:53;10.18;;;9.18;;
24389;SDS011;12510;56.468;-3.004;2023-04-28T13:14:20;10.52;;;9.52;;
24389;SDS011;12510;56.468;-3.004;2023-04-28T13:16:47;9.90;;;9.00;;
24389;SDS011;12510;56.468;-3.004;2023-04-28T13:19:13;8.80;;;8.10;;
24389;SDS011;12510;56.468;-3.004;2023-04-28T13:21:40;10.43;;;9.43;;
24389;SDS011;12510;56.468;-3.004;2023-04-28T13:24:07;9.73;;;8.75;;
24389;SDS011;12510;56.468;-3.004;2023-04-28T13:26:35;9.77;;;8.95;;
24389;SDS011;12510;56.468;-3.004;2023-04-28T13:29:05;9.75;;;8.90;;
24389;SDS011;12510;56.468;-3.004;2023-04-28T13:31:34;10.25;;;9.23;;
24389;SDS011;12510;56.468;-3.004;2023-04-28T13:34:01;10.10;;;9.13;;
24389;SDS011;12510;56.468;-3.004;2023-04-28T13:36:30;10.13;;;9.23;;
24389;SDS011;12510;56.468;-3.004;2023-04-28T13:41:26;9.25;;;8.45;;
24389;SDS011;12510;56.468;-3.004;2023-04-28T13:43:52;8.73;;;7.93;;
24389;SDS011;12510;56.468;-3.004;2023-04-28T13:46:19;8.43;;;7.65;;
24389;SDS011;12510;56.468;-3.004;2023-04-28T13:48:46;10.13;;;9.13;;
24389;SDS011;12510;56.468;-3.004;2023-04-28T13:51:12;9.10;;;8.20;;
24389;SDS011;12510;56.468;-3.004;2023-04-28T13:53:38;9.05;;;8.20;;
24389;SDS011;12510;56.468;-3.004;2023-04-28T13:56:05;9.50;;;8.18;;
24389;SDS011;12510;56.468;-3.004;2023-04-28T13:58:32;8.25;;;7.55;;
24389;SDS011;12510;56.468;-3.004;2023-04-28T14:00:59;8.88;;;8.00;;
24389;SDS011;12510;56.468;-3.004;2023-04-28T14:03:26;7.93;;;7.22;;
24389;SDS011;12510;56.468;-3.004;2023-04-28T14:05:56;7.68;;;6.85;;
24389;SDS011;12510;56.468;-3.004;2023-04-28T14:08:23;7.45;;;6.70;;
24389;SDS011;12510;56.468;-3.004;2023-04-28T14:10:50;7.68;;;6.88;;
24389;SDS011;12510;56.468;-3.004;2023-04-28T14:13:17;7.20;;;6.53;;
24389;SDS011;12510;56.468;-3.004;2023-04-28T14:15:45;7.38;;;6.68;;
24389;SDS011;12510;56.468;-3.004;2023-04-28T14:18:12;6.20;;;5.70;;
24389;SDS011;12510;56.468;-3.004;2023-04-28T14:20:39;6.50;;;5.95;;
24389;SDS011;12510;56.468;-3.004;2023-04-28T14:23:05;6.47;;;5.78;;
24389;SDS011;12510;56.468;-3.004;2023-04-28T14:25:32;7.03;;;6.40;;
24389;SDS011;12510;56.468;-3.004;2023-04-28T14:27:58;7.53;;;6.40;;
24389;SDS011;12510;56.468;-3.004;2023-04-28T14:30:25;7.05;;;6.45;;
24389;SDS011;12510;56.468;-3.004;2023-04-28T14:32:52;7.90;;;7.20;;
24389;SDS011;12510;56.468;-3.004;2023-04-28T14:35:18;16.70;;;10.40;;
24389;SDS011;12510;56.468;-3.004;2023-04-28T14:37:46;10.77;;;9.38;;
24389;SDS011;12510;56.468;-3.004;2023-04-28T14:40:12;7.20;;;6.57;;
24389;SDS011;12510;56.468;-3.004;2023-04-28T14:42:40;11.10;;;10.00;;
24389;SDS011;12510;56.468;-3.004;2023-04-28T14:45:07;5.85;;;5.25;;
24389;SDS011;12510;56.468;-3.004;2023-04-28T14:47:35;5.55;;;4.60;;
24389;SDS011;12510;56.468;-3.004;2023-04-28T14:50:03;5.78;;;4.80;;
24389;SDS011;12510;56.468;-3.004;2023-04-28T14:52:30;8.27;;;5.00;;
24389;SDS011;12510;56.468;-3.004;2023-04-28T14:54:58;5.05;;;4.57;;
24389;SDS011;12510;56.468;-3.004;2023-04-28T14:57:26;6.30;;;5.40;;
24389;SDS011;12510;56.468;-3.004;2023-04-28T14:59:52;4.28;;;3.97;;